Time;durP1;ratioP1;P1;durP2;ratioP2;P2;SDS_P1;SDS_P2;PMS_P1;PMS_P2;Temp;Humidity;BMP_temperature;BMP_pressure;BME280_temperature;BME280_humidity;BME280_pressure;Samples;Min_cycle;Max_cycle;Signal;HPM_P1;HPM_P2
2022/02/08 00:01:13;;;;;;;8.15;3.28;;;;;;;4.48;65.26;101924.38;5044497;28;20495;-80
2022/02/08 00:03:38;;;;;;;8.20;3.17;;;;;;;4.56;65.08;101924.38;5035646;28;20938;-79
2022/02/08 00:08:44;;;;;;;6.65;2.95;;;;;;;4.56;65.70;101923.53;5052961;28;20393;-80
2022/02/08 00:11:10;;;;;;;10.77;4.10;;;;;;;4.62;65.44;101921.03;5043562;28;20402;-80
2022/02/08 00:13:35;;;;;;;7.78;2.85;;;;;;;4.59;65.57;101923.19;5052574;28;20406;-80
2022/02/08 00:16:01;;;;;;;11.73;3.13;;;;;;;4.60;65.27;101919.53;5031262;28;20403;-80
2022/02/08 00:18:26;;;;;;;9.97;3.43;;;;;;;4.60;65.03;101916.84;5036253;28;20387;-80
2022/02/08 00:20:51;;;;;;;7.70;2.77;;;;;;;4.53;65.64;101921.19;5043385;28;20411;-80
2022/02/08 00:23:16;;;;;;;11.60;2.97;;;;;;;4.55;65.45;101935.28;5049679;28;20408;-80
2022/02/08 00:25:42;;;;;;;10.87;3.43;;;;;;;4.51;65.29;101931.28;5037023;28;20403;-80
2022/02/08 00:28:07;;;;;;;10.07;2.83;;;;;;;4.57;65.84;101942.19;5035711;28;20456;-80
2022/02/08 00:30:32;;;;;;;8.83;2.93;;;;;;;4.63;65.21;101946.88;5044534;28;20425;-81
2022/02/08 00:32:58;;;;;;;11.37;3.03;;;;;;;4.61;65.57;101951.56;5036131;28;20390;-80
2022/02/08 00:35:23;;;;;;;7.60;3.40;;;;;;;4.59;65.62;101945.53;5046825;28;20486;-80
2022/02/08 00:37:49;;;;;;;6.90;2.20;;;;;;;4.58;65.70;101949.22;5034234;28;20426;-80
2022/02/08 00:40:14;;;;;;;8.03;2.93;;;;;;;4.59;66.25;101948.22;5044518;28;20430;-80
2022/02/08 00:42:39;;;;;;;11.07;2.80;;;;;;;4.54;65.99;101939.84;5030757;28;20469;-80
2022/02/08 00:47:43;;;;;;;8.82;3.20;;;;;;;4.53;65.75;101943.53;5035710;28;20403;-80
2022/02/08 00:50:10;;;;;;;10.98;4.00;;;;;;;4.52;66.32;101943.69;5037992;28;20870;-80
2022/02/08 00:52:38;;;;;;;10.18;3.65;;;;;;;4.52;65.56;101952.56;5031459;28;20403;-80
2022/02/08 00:55:07;;;;;;;8.53;3.73;;;;;;;4.45;65.49;101950.72;5032060;28;20406;-80
2022/02/08 00:57:32;;;;;;;13.45;2.80;;;;;;;4.40;65.86;101955.78;5048077;28;20425;-80
2022/02/08 00:59:57;;;;;;;10.90;3.40;;;;;;;4.36;66.36;101949.06;5034511;28;20502;-80
2022/02/08 01:02:22;;;;;;;7.50;2.73;;;;;;;4.30;66.67;101955.94;5036941;28;20390;-80
2022/02/08 01:04:54;;;;;;;8.43;3.90;;;;;;;4.33;66.51;101962.81;5031043;28;20399;-80
2022/02/08 01:07:19;;;;;;;8.80;4.90;;;;;;;4.32;66.73;101961.13;5032865;28;20485;-80
2022/02/08 01:09:51;;;;;;;15.80;6.38;;;;;;;4.34;66.69;101969.88;5049032;28;20429;-81
2022/02/08 01:12:17;;;;;;;10.05;4.40;;;;;;;4.31;66.89;101975.56;5033510;28;20399;-80
2022/02/08 01:14:44;;;;;;;9.27;3.92;;;;;;;4.25;67.12;101974.38;5035894;28;20402;-80
2022/02/08 01:17:11;;;;;;;5.90;3.30;;;;;;;4.16;67.28;101978.06;5030799;28;20420;-80
2022/02/08 01:19:40;;;;;;;8.93;3.17;;;;;;;4.12;66.77;101972.19;5037642;28;20452;-80
2022/02/08 01:22:06;;;;;;;8.00;3.20;;;;;;;4.09;67.58;101971.69;5041251;28;20395;-80
2022/02/08 01:24:31;;;;;;;10.23;3.07;;;;;;;4.09;67.36;101975.22;5036905;28;20406;-81
2022/02/08 01:27:05;;;;;;;10.50;3.27;;;;;;;4.04;67.08;101974.03;5048497;28;20459;-80
2022/02/08 01:32:53;;;;;;;9.70;3.38;;;;;;;3.96;67.84;101982.91;5031887;28;20391;-80
2022/02/08 01:37:55;;;;;;;11.90;3.97;;;;;;;3.93;67.40;101985.06;5041759;28;20521;-80
2022/02/08 01:50:27;;;;;;;6.03;2.87;;;;;;;3.79;68.22;101966.97;5041012;28;20409;-80
2022/02/08 01:52:53;;;;;;;7.72;3.15;;;;;;;3.78;68.82;101965.28;5030764;28;20407;-80
2022/02/08 01:55:18;;;;;;;7.83;2.87;;;;;;;3.79;68.35;101966.97;5032533;28;20394;-80
2022/02/08 01:57:45;;;;;;;6.87;2.83;;;;;;;3.73;69.18;101962.22;5042336;28;20416;-80
2022/02/08 02:00:11;;;;;;;9.23;3.17;;;;;;;3.68;68.85;101954.69;5031892;28;20417;-80
2022/02/08 02:02:37;;;;;;;11.43;3.22;;;;;;;3.62;68.88;101950.81;5032600;28;21187;-80
2022/02/08 02:05:03;;;;;;;9.10;3.03;;;;;;;3.61;68.83;101953.66;5031387;28;20934;-80
2022/02/08 02:07:29;;;;;;;10.13;3.40;;;;;;;3.59;68.25;101951.13;5046447;28;20473;-80
2022/02/08 02:09:54;;;;;;;9.13;3.27;;;;;;;3.62;68.59;101948.13;5035686;28;20905;-80
2022/02/08 02:12:19;;;;;;;9.82;3.22;;;;;;;3.65;68.28;101952.34;5029868;28;20411;-81
2022/02/08 02:14:45;;;;;;;12.55;3.53;;;;;;;3.70;68.01;101949.16;5030920;28;20435;-81
2022/02/08 02:17:11;;;;;;;10.00;3.47;;;;;;;3.71;68.28;101946.31;5032845;28;20778;-80
2022/02/08 02:19:38;;;;;;;7.22;2.70;;;;;;;3.66;68.71;101954.84;5030822;28;20774;-80
2022/02/08 02:22:06;;;;;;;11.57;3.90;;;;;;;3.66;68.57;101948.63;5033414;28;20406;-80
2022/02/08 02:24:32;;;;;;;9.95;3.22;;;;;;;3.67;68.80;101958.38;5048774;28;20466;-80
2022/02/08 02:26:59;;;;;;;10.15;3.28;;;;;;;3.66;69.07;101949.47;5045463;28;20508;-80
2022/02/08 02:29:25;;;;;;;10.60;3.00;;;;;;;3.64;68.11;101948.81;5037981;28;20435;-80
2022/02/08 02:31:51;;;;;;;9.75;4.05;;;;;;;3.76;67.80;101940.44;5034052;28;20409;-80
2022/02/08 02:34:18;;;;;;;6.30;2.90;;;;;;;3.83;68.31;101934.25;5046215;28;20414;-80
2022/02/08 02:36:44;;;;;;;9.13;2.90;;;;;;;3.91;68.45;101936.97;5040869;28;20405;-80
2022/02/08 02:39:10;;;;;;;9.40;4.03;;;;;;;3.97;68.47;101940.84;5035047;28;20399;-80
2022/02/08 02:41:43;;;;;;;11.73;3.95;;;;;;;4.04;68.71;101942.69;5040513;28;20424;-80
2022/02/08 02:44:11;;;;;;;12.38;3.42;;;;;;;4.00;68.68;101944.03;5048536;28;20399;-80
2022/02/08 02:46:38;;;;;;;7.78;3.33;;;;;;;4.01;68.73;101944.88;5033287;28;20406;-80
2022/02/08 02:49:04;;;;;;;8.10;2.75;;;;;;;4.08;67.97;101940.50;5037745;28;20410;-80
2022/02/08 02:51:30;;;;;;;8.70;3.15;;;;;;;4.18;67.26;101941.19;5034642;28;20429;-80
2022/02/08 02:53:56;;;;;;;7.53;2.88;;;;;;;4.22;67.48;101941.66;5045340;28;20842;-80
2022/02/08 02:56:21;;;;;;;9.05;2.30;;;;;;;4.24;67.34;101929.78;5033605;28;20441;-80
2022/02/08 02:58:48;;;;;;;8.17;2.30;;;;;;;4.34;65.88;101927.78;5047270;28;20877;-80
2022/02/08 03:03:54;;;;;;;6.07;2.17;;;;;;;4.47;65.95;101941.53;5042246;28;20407;-80
2022/02/08 03:20:00;;;;;;;9.17;2.40;;;;;;;4.43;65.32;101939.34;5035539;28;20472;-81
2022/02/08 03:22:25;;;;;;;8.90;2.80;;;;;;;4.47;65.03;101943.38;5041411;28;20433;-80
2022/02/08 03:24:50;;;;;;;12.07;4.07;;;;;;;4.57;64.69;101952.06;5050033;28;20398;-80
2022/02/08 03:27:16;;;;;;;14.60;6.63;;;;;;;4.61;64.87;101951.56;5048971;28;20398;-81
2022/02/08 03:29:42;;;;;;;11.30;3.80;;;;;;;4.58;64.83;101949.22;5039419;28;20413;-81
2022/02/08 03:32:08;;;;;;;6.68;2.35;;;;;;;4.63;64.20;101946.88;5034722;28;20743;-80
2022/02/08 03:34:33;;;;;;;8.75;2.95;;;;;;;4.64;64.64;101942.34;5039766;28;20398;-80
2022/02/08 03:36:58;;;;;;;7.50;2.63;;;;;;;4.53;64.94;101948.91;5046900;28;20882;-80
2022/02/08 03:39:33;;;;;;;7.37;1.87;;;;;;;4.53;64.68;101950.72;5036701;28;20406;-80
2022/02/08 03:42:09;;;;;;;9.80;2.78;;;;;;;4.51;64.72;101955.44;5040808;28;20423;-80
2022/02/08 03:44:35;;;;;;;6.73;2.33;;;;;;;4.48;64.97;101950.41;5030046;28;20406;-80
2022/02/08 03:47:06;;;;;;;7.90;1.93;;;;;;;4.47;65.23;101954.94;5032641;28;20778;-80
2022/02/08 03:49:32;;;;;;;7.60;2.22;;;;;;;4.60;64.81;101955.25;5039333;28;20889;-80
2022/02/08 03:52:01;;;;;;;7.75;2.50;;;;;;;4.62;64.69;101955.94;5048657;28;20438;-81
2022/02/08 03:54:26;;;;;;;6.28;2.10;;;;;;;4.71;64.08;101954.06;5049471;28;20417;-80
2022/02/08 03:56:52;;;;;;;9.03;4.20;;;;;;;4.67;64.91;101955.44;5043619;28;20461;-80
2022/02/08 03:59:17;;;;;;;9.73;2.83;;;;;;;4.63;65.36;101949.56;5043831;28;20896;-80
2022/02/08 04:04:34;;;;;;;8.20;2.47;;;;;;;4.59;65.77;101945.53;5036262;28;20413;-80
2022/02/08 04:07:05;;;;;;;11.00;2.40;;;;;;;4.65;65.61;101952.06;5040769;28;20932;-80
2022/02/08 04:09:30;;;;;;;7.57;2.50;;;;;;;4.66;66.26;101954.59;5038542;28;20426;-80
2022/02/08 04:12:04;;;;;;;10.60;2.63;;;;;;;4.65;66.17;101950.22;5039621;28;20837;-80
2022/02/08 04:14:46;;;;;;;6.65;2.15;;;;;;;4.65;66.35;101950.22;5032122;28;20906;-80
2022/02/08 04:17:26;;;;;;;6.28;2.03;;;;;;;4.62;66.03;101950.56;5059105;28;20497;-80
2022/02/08 04:36:29;;;;;;;7.35;3.40;;;;;;;4.78;64.59;101933.56;5039455;28;20405;-80
2022/02/08 04:39:03;;;;;;;9.68;2.80;;;;;;;4.85;63.89;101939.09;5051785;28;20397;-81
2022/02/08 04:41:40;;;;;;;11.60;2.30;;;;;;;4.77;65.00;101939.13;5038781;28;20424;-80
2022/02/08 04:46:58;;;;;;;7.88;2.15;;;;;;;4.82;64.67;101934.06;5031969;28;20794;-80
2022/02/08 04:49:24;;;;;;;5.85;2.13;;;;;;;4.76;64.88;101940.97;5033028;28;20395;-80
2022/02/08 04:51:54;;;;;;;9.77;2.60;;;;;;;4.77;65.14;101945.34;5038294;28;20488;-80
2022/02/08 04:57:03;;;;;;;9.52;1.85;;;;;;;4.81;64.64;101943.16;5045402;28;20409;-79
2022/02/08 05:48:44;;;;;;;7.55;1.88;;;;;;;4.86;64.79;101938.09;5033957;28;20440;-79
2022/02/08 05:51:20;;;;;;;7.18;2.33;;;;;;;4.87;64.40;101940.63;5034298;28;20410;-78
2022/02/08 05:53:46;;;;;;;6.22;2.33;;;;;;;4.91;64.68;101935.72;5043820;28;20400;-80
2022/02/08 05:56:16;;;;;;;6.60;2.27;;;;;;;4.91;64.48;101949.16;5037109;28;20399;-80
2022/02/08 05:58:44;;;;;;;7.88;2.28;;;;;;;4.89;64.55;101937.75;5030560;28;20449;-80
2022/02/08 06:01:10;;;;;;;8.10;1.70;;;;;;;4.89;64.59;101943.13;5029453;28;20395;-80
2022/02/08 06:03:36;;;;;;;5.00;1.77;;;;;;;4.90;64.56;101932.22;5031211;28;20485;-80
2022/02/08 06:06:01;;;;;;;11.52;2.65;;;;;;;4.88;64.85;101934.22;5034834;28;20514;-79
2022/02/08 06:08:26;;;;;;;5.97;2.00;;;;;;;4.86;64.92;101922.81;5030986;28;20434;-80
2022/02/08 06:10:57;;;;;;;7.13;2.40;;;;;;;4.84;64.73;101926.69;5031441;28;20410;-80
2022/02/08 06:13:23;;;;;;;7.22;1.67;;;;;;;4.82;64.71;101923.31;5033086;28;20755;-80
2022/02/08 06:15:50;;;;;;;6.77;1.70;;;;;;;4.83;64.94;101928.53;5055493;28;20402;-78
2022/02/08 06:18:16;;;;;;;9.73;3.17;;;;;;;4.83;65.15;101925.84;5034103;28;20824;-80
2022/02/08 06:20:42;;;;;;;7.87;2.87;;;;;;;4.88;65.43;101928.00;5034273;28;20414;-80
2022/02/08 06:23:07;;;;;;;6.90;2.80;;;;;;;4.91;64.98;101920.44;5045860;28;20401;-81
2022/02/08 06:25:33;;;;;;;8.47;1.90;;;;;;;4.96;64.83;101917.25;5049587;28;20480;-79
2022/02/08 06:27:59;;;;;;;6.63;2.13;;;;;;;4.99;64.57;101928.47;5035454;28;20399;-81
2022/02/08 06:30:24;;;;;;;7.40;2.17;;;;;;;4.96;64.97;101925.31;5056964;28;20435;-80
2022/02/08 06:32:53;;;;;;;7.18;2.20;;;;;;;4.92;65.37;101932.88;5044061;28;20961;-79
2022/02/08 06:35:22;;;;;;;6.72;2.05;;;;;;;4.99;65.26;101938.38;5045723;28;20888;-80
2022/02/08 06:37:48;;;;;;;5.63;2.30;;;;;;;5.00;65.26;101938.22;5034324;28;20446;-79
2022/02/08 06:40:14;;;;;;;8.45;2.92;;;;;;;4.98;65.39;101939.38;5041027;28;20389;-79
2022/02/08 06:42:41;;;;;;;8.33;2.53;;;;;;;4.92;65.88;101938.25;5043837;28;20442;-79
2022/02/08 06:45:10;;;;;;;11.65;2.50;;;;;;;4.97;65.61;101929.69;5036609;28;20428;-79
2022/02/08 06:47:37;;;;;;;8.45;2.05;;;;;;;4.97;65.29;101932.38;5047336;28;20817;-78
2022/02/08 06:50:06;;;;;;;7.32;2.50;;;;;;;5.03;65.51;101935.19;5047190;28;20414;-79
2022/02/08 06:52:36;;;;;;;9.95;3.53;;;;;;;5.05;64.89;101930.47;5041194;28;21301;-78
2022/02/08 06:55:03;;;;;;;7.32;2.40;;;;;;;5.05;65.45;101932.31;5048311;28;20398;-79
2022/02/08 06:57:36;;;;;;;9.35;3.42;;;;;;;5.09;64.40;101923.75;5046001;28;20856;-78
2022/02/08 07:00:03;;;;;;;5.63;2.63;;;;;;;5.17;64.48;101934.44;5054039;28;20553;-79
2022/02/08 07:02:29;;;;;;;9.10;2.00;;;;;;;5.16;64.50;101937.34;5057677;28;20435;-79
2022/02/08 07:04:54;;;;;;;8.43;2.20;;;;;;;5.13;64.53;101926.94;5036688;28;20438;-79
2022/02/08 07:07:19;;;;;;;5.85;2.08;;;;;;;5.06;65.21;101937.53;5035824;28;20403;-80
2022/02/08 07:09:46;;;;;;;5.33;2.40;;;;;;;5.10;64.94;101940.72;5050866;28;20381;-78
2022/02/08 07:12:11;;;;;;;11.43;2.60;;;;;;;5.09;64.99;101947.09;5046584;28;20643;-79
2022/02/08 07:14:37;;;;;;;9.77;1.83;;;;;;;5.16;64.49;101945.41;5049403;28;20395;-78
2022/02/08 07:17:02;;;;;;;8.30;2.22;;;;;;;5.18;64.73;101944.19;5049611;28;20448;-80
2022/02/08 07:19:28;;;;;;;5.65;2.15;;;;;;;5.18;64.90;101941.50;5061404;28;20496;-81
2022/02/08 07:21:53;;;;;;;7.77;2.33;;;;;;;5.27;64.67;101939.63;5034152;28;20403;-80
2022/02/08 07:24:20;;;;;;;6.37;2.10;;;;;;;5.27;64.70;101947.69;5034627;28;20411;-79
2022/02/08 07:26:46;;;;;;;5.53;1.90;;;;;;;5.37;64.11;101945.63;5049496;28;20409;-79
2022/02/08 07:29:13;;;;;;;8.27;2.30;;;;;;;5.46;63.95;101943.75;5052071;28;20783;-80
2022/02/08 07:31:47;;;;;;;6.53;2.45;;;;;;;5.36;64.24;101948.50;5042394;28;20405;-81
2022/02/08 07:34:28;;;;;;;8.63;3.08;;;;;;;5.30;64.61;101935.78;5045059;28;20440;-80
2022/02/08 07:37:14;;;;;;;5.78;1.70;;;;;;;5.26;64.88;101945.19;5033572;28;20422;-80
2022/02/08 07:39:48;;;;;;;7.38;2.10;;;;;;;5.31;64.98;101942.81;5043802;28;20822;-80
2022/02/08 07:42:14;;;;;;;6.10;1.92;;;;;;;5.31;64.38;101948.19;5049300;28;20496;-80
2022/02/08 07:44:39;;;;;;;8.20;1.77;;;;;;;5.39;63.87;101951.69;5049516;28;20493;-78
2022/02/08 07:47:05;;;;;;;6.85;1.65;;;;;;;5.29;64.38;101948.38;5040164;28;20418;-79
2022/02/08 07:49:32;;;;;;;5.90;1.80;;;;;;;5.23;64.18;101957.13;5038293;28;20392;-81
2022/02/08 07:51:58;;;;;;;6.78;1.92;;;;;;;5.26;64.24;101961.31;5033442;28;20403;-80
2022/02/08 07:54:23;;;;;;;5.67;1.70;;;;;;;5.33;63.83;101962.31;5056442;28;20410;-80
2022/02/08 07:56:49;;;;;;;7.45;2.45;;;;;;;5.47;63.65;101957.00;5032624;28;20418;-86
2022/02/08 07:59:14;;;;;;;12.98;2.42;;;;;;;5.44;63.23;101960.06;5043896;28;20451;-81
2022/02/08 08:01:40;;;;;;;5.70;1.67;;;;;;;5.45;62.97;101955.50;5037646;28;20395;-81
2022/02/08 08:04:05;;;;;;;5.80;2.50;;;;;;;5.50;62.89;101956.66;5046627;28;20406;-81
2022/02/08 08:06:30;;;;;;;8.90;2.70;;;;;;;5.54;62.33;101966.06;5038730;28;20420;-80
2022/02/08 08:08:56;;;;;;;7.23;2.73;;;;;;;5.67;62.03;101960.09;5040032;28;20401;-80
2022/02/08 08:11:22;;;;;;;9.43;3.77;;;;;;;5.63;62.07;101956.94;5030302;28;20419;-81
2022/02/08 08:14:12;;;;;;;9.90;4.93;;;;;;;5.62;62.19;101965.19;5032274;28;20387;-81
2022/02/08 08:19:07;;;;;;;6.45;2.20;;;;;;;5.70;61.44;101957.91;5032456;28;20497;-81
2022/02/08 08:21:33;;;;;;;7.07;2.20;;;;;;;5.69;61.92;101958.09;5032750;28;20458;-81
2022/02/08 08:24:00;;;;;;;7.57;1.85;;;;;;;5.84;60.90;101958.16;5046944;28;20462;-81
2022/02/08 08:26:26;;;;;;;8.60;1.70;;;;;;;5.86;60.69;101954.31;5033744;28;20403;-81
2022/02/08 08:28:51;;;;;;;6.80;1.97;;;;;;;5.94;61.06;101951.56;5032708;28;20387;-81
2022/02/08 08:31:16;;;;;;;4.20;1.53;;;;;;;6.06;59.12;101954.72;5031631;28;20814;-81
2022/02/08 08:33:43;;;;;;;6.57;1.80;;;;;;;6.13;59.49;101947.56;5037219;28;20916;-80
2022/02/08 08:36:09;;;;;;;8.35;2.15;;;;;;;6.13;59.09;101953.78;5037091;28;20718;-81
2022/02/08 08:38:35;;;;;;;5.57;1.73;;;;;;;6.11;59.92;101950.44;5033758;28;20410;-81
2022/02/08 08:41:11;;;;;;;8.68;2.00;;;;;;;6.08;60.27;101947.28;5045951;28;20393;-80
2022/02/08 08:51:42;;;;;;;5.45;1.90;;;;;;;6.46;59.04;101948.13;5050643;28;20414;-80
2022/02/08 08:54:08;;;;;;;9.32;2.58;;;;;;;6.47;58.59;101953.34;5035188;28;20889;-80
2022/02/08 08:56:35;;;;;;;5.70;1.60;;;;;;;6.52;57.02;101948.25;5052075;28;20435;-79
2022/02/08 08:59:02;;;;;;;6.75;2.20;;;;;;;6.44;58.90;101948.34;5035376;28;20418;-80
2022/02/08 09:01:27;;;;;;;7.20;2.38;;;;;;;6.51;59.14;101941.22;5048465;28;20449;-80
2022/02/08 09:03:53;;;;;;;7.07;1.80;;;;;;;6.59;59.23;101943.81;5031723;28;20875;-81
2022/02/08 09:06:19;;;;;;;10.68;1.85;;;;;;;6.54;58.82;101940.84;5038711;28;20462;-80
2022/02/08 09:08:45;;;;;;;8.18;1.52;;;;;;;6.64;58.61;101937.88;5044852;28;20413;-80
2022/02/08 09:11:39;;;;;;;6.75;1.52;;;;;;;6.92;58.20;101936.22;5043756;28;20446;-81
2022/02/08 09:14:10;;;;;;;8.57;1.85;;;;;;;7.14;56.72;101938.03;5036715;28;20893;-79
2022/02/08 09:16:46;;;;;;;6.90;2.15;;;;;;;7.24;55.41;101943.94;5042565;28;20413;-80
2022/02/08 09:19:39;;;;;;;9.95;2.58;;;;;;;7.18;56.52;101954.63;5044018;28;20410;-80
2022/02/08 09:22:36;;;;;;;6.90;2.53;;;;;;;7.04;56.79;101948.25;5044767;28;20811;-79
2022/02/08 09:30:19;;;;;;;6.33;2.30;;;;;;;7.07;56.89;101947.03;5043623;28;20461;-79
2022/02/08 09:32:52;;;;;;;10.45;2.42;;;;;;;7.10;56.65;101949.34;5036215;28;20931;-80
2022/02/08 09:35:18;;;;;;;6.85;2.20;;;;;;;7.06;57.06;101965.06;5040289;28;20405;-80
2022/02/08 09:37:45;;;;;;;8.02;2.53;;;;;;;7.04;57.50;101966.28;5041854;28;20408;-80
2022/02/08 09:40:13;;;;;;;6.43;1.77;;;;;;;7.07;57.35;101968.59;5035773;28;20910;-80
2022/02/08 09:42:40;;;;;;;7.32;2.40;;;;;;;7.11;55.93;101961.81;5039472;28;20518;-82
2022/02/08 09:45:12;;;;;;;12.10;1.95;;;;;;;7.03;56.65;101968.13;5046833;28;20920;-80
2022/02/08 09:47:49;;;;;;;6.75;2.08;;;;;;;7.01;57.53;101974.72;5032159;28;20407;-80
2022/02/08 09:50:20;;;;;;;9.40;2.13;;;;;;;7.06;57.52;101973.16;5031824;28;20823;-80
2022/02/08 09:52:50;;;;;;;7.85;2.53;;;;;;;7.02;58.33;101971.84;5045162;28;20401;-80
2022/02/08 09:55:16;;;;;;;6.15;2.38;;;;;;;6.99;58.35;101976.75;5037783;28;20404;-81
2022/02/08 09:57:41;;;;;;;10.27;2.60;;;;;;;7.01;58.36;101983.66;5038139;28;20415;-80
2022/02/08 10:00:07;;;;;;;7.13;2.63;;;;;;;6.98;58.83;101973.22;5031863;28;20454;-80
2022/02/08 10:02:33;;;;;;;9.40;2.58;;;;;;;6.95;58.81;101973.59;5046232;28;20409;-81
2022/02/08 10:05:00;;;;;;;10.27;2.40;;;;;;;7.02;57.59;101976.38;5042611;28;20906;-80
2022/02/08 10:07:27;;;;;;;8.90;2.50;;;;;;;7.07;58.52;101971.28;5046041;28;20383;-80
2022/02/08 10:09:52;;;;;;;6.53;2.13;;;;;;;7.21;58.16;101979.38;5036431;28;20401;-80
2022/02/08 10:12:27;;;;;;;7.93;2.30;;;;;;;7.17;58.88;101974.56;5030247;28;20449;-80
2022/02/08 10:18:59;;;;;;;9.73;2.25;;;;;;;7.21;59.05;101973.16;5040201;28;20392;-80
2022/02/08 10:23:09;;;;;;;6.00;2.20;;;;;;;7.35;58.74;101979.53;5038695;28;20940;-81
2022/02/08 10:25:59;;;;;;;5.30;1.93;;;;;;;7.42;58.50;101978.63;5040760;28;20496;-81
2022/02/08 10:28:31;;;;;;;8.20;2.55;;;;;;;7.49;58.45;101976.84;5045830;28;20401;-80
2022/02/08 10:31:26;;;;;;;6.87;1.97;;;;;;;7.61;57.15;101979.88;5039069;28;20395;-81
2022/02/08 10:39:26;;;;;;;11.70;3.03;;;;;;;7.50;59.42;101996.56;5043362;28;20396;-80
2022/02/08 10:41:52;;;;;;;9.00;2.47;;;;;;;7.53;58.51;101997.03;5048829;28;20409;-80
2022/02/08 10:44:17;;;;;;;9.90;2.27;;;;;;;7.53;58.94;101997.03;5036206;28;21379;-80
2022/02/08 10:46:42;;;;;;;6.40;1.90;;;;;;;7.62;59.12;101987.81;5038028;28;20420;-79
2022/02/08 10:49:12;;;;;;;6.00;2.33;;;;;;;7.67;59.03;101998.06;5046017;28;20477;-80
2022/02/08 10:51:53;;;;;;;8.30;2.10;;;;;;;7.65;59.47;101991.97;5045505;28;20394;-79
2022/02/08 10:54:33;;;;;;;7.95;2.33;;;;;;;7.50;59.96;101989.31;5036761;28;20401;-80
2022/02/08 10:57:07;;;;;;;10.05;2.28;;;;;;;7.45;60.64;101980.94;5041872;28;20415;-80
2022/02/08 10:59:39;;;;;;;8.07;1.98;;;;;;;7.50;60.62;101989.31;5053347;28;20460;-80
2022/02/08 11:02:15;;;;;;;9.25;2.22;;;;;;;7.50;60.86;101993.88;5042164;28;20490;-80
2022/02/08 11:04:57;;;;;;;9.27;2.75;;;;;;;7.46;60.88;101981.78;5049307;28;20470;-79
2022/02/08 11:10:28;;;;;;;11.50;3.03;;;;;;;7.56;60.74;101976.94;5036780;28;20495;-80
2022/02/08 11:13:13;;;;;;;9.10;2.88;;;;;;;7.69;61.01;101974.41;5050231;28;20420;-80
2022/02/08 11:15:48;;;;;;;14.50;4.50;;;;;;;7.74;61.35;101974.66;5046012;28;20436;-78
2022/02/08 11:18:31;;;;;;;15.52;6.00;;;;;;;7.67;61.35;101979.97;5032579;28;20506;-79
2022/02/08 11:21:57;;;;;;;12.15;4.07;;;;;;;7.87;61.00;101979.41;5034284;28;20908;-79
2022/02/08 11:26:31;;;;;;;15.05;4.38;;;;;;;7.79;61.57;101981.19;5041547;28;20405;-80
2022/02/08 11:29:07;;;;;;;11.52;3.33;;;;;;;7.95;61.54;101976.56;5062489;28;20958;-80
2022/02/08 11:31:37;;;;;;;9.27;3.58;;;;;;;8.04;61.19;101973.56;5046271;28;20415;-79
2022/02/08 11:38:57;;;;;;;11.10;4.47;;;;;;;8.04;61.87;101976.25;5038920;28;20483;-80
2022/02/08 11:50:09;;;;;;;11.82;3.55;;;;;;;8.54;62.81;101966.38;5038998;28;20448;-79
2022/02/08 11:52:55;;;;;;;13.23;2.75;;;;;;;8.45;63.73;101971.09;5046634;28;20431;-78
2022/02/08 11:58:23;;;;;;;9.57;2.93;;;;;;;8.40;64.26;101962.72;5051947;28;21198;-78
2022/02/08 12:00:59;;;;;;;11.25;3.40;;;;;;;8.53;64.22;101973.66;5050086;28;20421;-77
2022/02/08 12:03:55;;;;;;;11.63;3.20;;;;;;;8.52;64.70;101966.59;5043086;28;20451;-77
2022/02/08 12:09:08;;;;;;;9.25;2.97;;;;;;;8.60;65.88;101961.03;5042489;28;20419;-78
2022/02/08 12:12:04;;;;;;;11.77;3.33;;;;;;;8.40;65.94;101962.72;5029641;28;20517;-79
2022/02/08 12:30:08;;;;;;;9.25;2.90;;;;;;;8.48;65.75;101943.69;5042861;28;20442;-78
2022/02/08 12:31:25;;;;;;;9.88;3.35;;;;;;;8.46;66.59;101932.25;5030388;28;20506;-78
2022/02/08 12:33:59;;;;;;;10.90;3.40;;;;;;;8.59;65.94;101936.91;5034347;28;20395;-77
2022/02/08 12:48:36;;;;;;;10.68;3.15;;;;;;;8.79;66.62;101925.19;5052098;28;20589;-78
2022/02/08 12:55:53;;;;;;;14.05;2.85;;;;;;;8.84;66.31;101925.47;5046830;28;20403;-78
2022/02/08 13:01:08;;;;;;;15.57;3.40;;;;;;;8.59;68.00;101920.72;5039133;28;20407;-78
2022/02/08 13:03:49;;;;;;;11.45;2.78;;;;;;;8.40;68.60;101930.31;5047578;28;20930;-78
2022/02/08 13:15:31;;;;;;;11.97;3.27;;;;;;;8.55;68.42;101908.63;5045402;28;20781;-78
2022/02/08 13:18:33;;;;;;;14.32;3.00;;;;;;;8.56;68.74;101910.28;5049953;28;20412;-78
2022/02/08 14:14:33;;;;;;;13.82;2.83;;;;;;;9.99;66.22;101846.16;5034106;28;20812;-78
2022/02/08 14:19:51;;;;;;;10.00;3.50;;;;;;;10.21;65.87;101845.78;5046033;28;20407;-78
2022/02/08 14:22:31;;;;;;;8.63;4.00;;;;;;;10.24;65.79;101839.13;5040365;28;20413;-77
2022/02/08 14:30:45;;;;;;;10.43;3.28;;;;;;;10.11;65.84;101831.78;5039639;28;20942;-77
2022/02/08 14:33:30;;;;;;;10.75;3.38;;;;;;;10.28;65.62;101833.06;5052727;28;20940;-78
2022/02/08 14:57:31;;;;;;;9.63;2.67;;;;;;;9.41;68.99;101835.03;5034956;28;20406;-77
2022/02/08 14:59:00;;;;;;;12.60;2.95;;;;;;;9.10;70.54;101843.66;5048232;28;20425;-78
2022/02/08 15:05:24;;;;;;;12.75;2.95;;;;;;;9.11;70.40;101834.50;5036880;28;22053;-78
2022/02/08 15:06:35;;;;;;;9.95;3.03;;;;;;;9.21;70.24;101840.38;5045011;28;20405;-77
2022/02/08 15:08:58;;;;;;;14.50;3.53;;;;;;;9.28;70.10;101838.53;5043424;28;20428;-77
2022/02/08 15:11:32;;;;;;;10.00;3.07;;;;;;;9.23;70.78;101840.16;5060183;28;20389;-78
2022/02/08 15:13:59;;;;;;;9.27;2.88;;;;;;;9.15;71.10;101834.94;5050095;28;20428;-78
2022/02/08 15:16:35;;;;;;;9.25;2.60;;;;;;;9.02;71.80;101840.28;5039619;28;20894;-77
2022/02/08 15:19:01;;;;;;;6.60;2.42;;;;;;;8.89;72.60;101838.38;5036394;28;20438;-77
2022/02/08 15:21:32;;;;;;;11.97;4.93;;;;;;;8.94;72.37;101832.34;5048005;28;20428;-78
2022/02/08 15:23:58;;;;;;;10.07;3.60;;;;;;;8.86;71.90;101836.88;5048163;28;20405;-79
2022/02/08 15:26:24;;;;;;;7.22;2.53;;;;;;;8.77;71.71;101842.66;5035947;28;20811;-78
2022/02/08 15:28:49;;;;;;;13.57;3.50;;;;;;;8.75;71.98;101833.91;5030188;28;20567;-78
2022/02/08 15:31:17;;;;;;;12.05;2.65;;;;;;;8.79;71.93;101840.59;5038750;28;20399;-78
2022/02/08 15:33:42;;;;;;;11.23;2.78;;;;;;;8.73;71.95;101846.78;5038638;28;20505;-79
2022/02/08 15:36:07;;;;;;;9.50;3.10;;;;;;;8.69;72.19;101845.53;5029481;28;20943;-78
2022/02/08 15:38:36;;;;;;;10.27;2.53;;;;;;;8.75;72.09;101847.44;5033801;28;20909;-77
2022/02/08 15:41:02;;;;;;;9.23;2.42;;;;;;;8.81;71.77;101842.06;5040535;28;20768;-79
2022/02/08 15:43:28;;;;;;;8.90;2.83;;;;;;;8.75;71.95;101840.16;5035544;28;21084;-79
2022/02/08 15:45:59;;;;;;;9.40;4.22;;;;;;;8.67;72.09;101842.16;5041967;28;20445;-78
2022/02/08 15:48:25;;;;;;;13.07;4.32;;;;;;;8.64;72.24;101843.41;5048120;28;20424;-78
2022/02/08 15:51:00;;;;;;;14.60;4.63;;;;;;;8.64;72.37;101840.72;5045677;28;20817;-78
2022/02/08 16:00:09;;;;;;;10.57;3.63;;;;;;;8.64;71.91;101848.81;5041539;28;20508;-78
2022/02/08 16:17:33;;;;;;;17.42;5.40;;;;;;;8.50;72.55;101857.00;5039471;28;20621;-77
2022/02/08 16:25:13;;;;;;;12.48;3.80;;;;;;;8.47;72.64;101865.53;5046117;28;21014;-77
2022/02/08 16:46:32;;;;;;;12.73;3.08;;;;;;;8.37;73.02;101868.56;5035374;28;20409;-78
2022/02/08 16:49:11;;;;;;;13.43;3.47;;;;;;;8.38;73.46;101872.09;5047229;28;20416;-78
2022/02/08 16:54:27;;;;;;;11.57;2.80;;;;;;;8.39;72.93;101871.94;5049615;28;20459;-78
2022/02/08 16:57:52;;;;;;;11.27;3.53;;;;;;;8.39;73.45;101871.09;5039934;28;20453;-79
2022/02/08 16:59:40;;;;;;;11.68;2.90;;;;;;;8.40;73.25;101870.06;5039157;28;20809;-80
2022/02/08 17:02:07;;;;;;;11.10;4.15;;;;;;;8.34;73.94;101877.91;5034509;28;20470;-79
2022/02/08 17:04:34;;;;;;;11.80;4.32;;;;;;;8.30;73.74;101868.50;5032178;28;20834;-79
2022/02/08 17:07:00;;;;;;;11.63;3.40;;;;;;;8.31;73.34;101867.50;5047330;28;20389;-79
2022/02/08 17:09:42;;;;;;;13.63;4.15;;;;;;;8.33;73.21;101864.59;5044339;28;20429;-79
2022/02/08 17:17:40;;;;;;;13.27;4.80;;;;;;;8.26;73.27;101867.22;5035614;28;20465;-79
2022/02/08 17:50:08;;;;;;;12.15;3.72;;;;;;;8.25;73.75;101865.53;5038312;28;20401;-80
2022/02/08 17:52:37;;;;;;;7.50;3.10;;;;;;;8.22;74.08;101870.50;5031621;28;20403;-78
2022/02/08 17:55:05;;;;;;;13.05;4.00;;;;;;;8.20;74.29;101876.09;5028811;28;20407;-78
2022/02/08 17:57:30;;;;;;;10.55;2.50;;;;;;;8.20;74.93;101880.69;5055635;28;20419;-78